sensor_id;sensor_type;location;lat;lon;timestamp;P1;durP1;ratioP1;P2;durP2;ratioP2
21166;SDS011;10741;52.272;9.580;2022-08-21T00:00:27;5.97;;;2.07;;
21166;SDS011;10741;52.272;9.580;2022-08-21T00:02:55;6.10;;;2.23;;
21166;SDS011;10741;52.272;9.580;2022-08-21T00:05:23;5.83;;;2.07;;
21166;SDS011;10741;52.272;9.580;2022-08-21T00:07:50;3.70;;;1.87;;
21166;SDS011;10741;52.272;9.580;2022-08-21T00:10:16;7.47;;;1.97;;
21166;SDS011;10741;52.272;9.580;2022-08-21T00:12:45;3.80;;;2.10;;
21166;SDS011;10741;52.272;9.580;2022-08-21T00:15:12;5.93;;;2.50;;
21166;SDS011;10741;52.272;9.580;2022-08-21T00:17:41;2.93;;;1.90;;
21166;SDS011;10741;52.272;9.580;2022-08-21T00:20:08;6.87;;;2.30;;
21166;SDS011;10741;52.272;9.580;2022-08-21T00:22:35;4.33;;;2.10;;
21166;SDS011;10741;52.272;9.580;2022-08-21T00:25:02;3.50;;;2.03;;
21166;SDS011;10741;52.272;9.580;2022-08-21T00:27:29;3.00;;;1.80;;
21166;SDS011;10741;52.272;9.580;2022-08-21T00:29:55;4.30;;;2.20;;
21166;SDS011;10741;52.272;9.580;2022-08-21T00:32:22;5.70;;;2.20;;
21166;SDS011;10741;52.272;9.580;2022-08-21T00:34:50;3.97;;;2.10;;
21166;SDS011;10741;52.272;9.580;2022-08-21T00:37:16;3.93;;;1.83;;
21166;SDS011;10741;52.272;9.580;2022-08-21T00:39:42;5.23;;;2.17;;
21166;SDS011;10741;52.272;9.580;2022-08-21T00:42:08;4.17;;;2.00;;
21166;SDS011;10741;52.272;9.580;2022-08-21T00:44:35;4.10;;;1.93;;
21166;SDS011;10741;52.272;9.580;2022-08-21T00:47:01;5.30;;;2.13;;
21166;SDS011;10741;52.272;9.580;2022-08-21T00:49:26;7.23;;;2.40;;
21166;SDS011;10741;52.272;9.580;2022-08-21T00:51:57;4.03;;;2.20;;
21166;SDS011;10741;52.272;9.580;2022-08-21T00:54:25;3.50;;;2.03;;
21166;SDS011;10741;52.272;9.580;2022-08-21T00:57:05;4.97;;;2.00;;
21166;SDS011;10741;52.272;9.580;2022-08-21T00:59:36;5.77;;;2.20;;
21166;SDS011;10741;52.272;9.580;2022-08-21T01:02:04;4.30;;;2.20;;
21166;SDS011;10741;52.272;9.580;2022-08-21T01:04:32;9.77;;;2.00;;
21166;SDS011;10741;52.272;9.580;2022-08-21T01:06:58;4.97;;;1.90;;
21166;SDS011;10741;52.272;9.580;2022-08-21T01:09:24;5.60;;;1.93;;
21166;SDS011;10741;52.272;9.580;2022-08-21T01:11:50;4.00;;;2.10;;
21166;SDS011;10741;52.272;9.580;2022-08-21T01:14:16;3.57;;;1.97;;
21166;SDS011;10741;52.272;9.580;2022-08-21T01:16:45;2.40;;;1.90;;
21166;SDS011;10741;52.272;9.580;2022-08-21T01:19:14;4.53;;;2.07;;
21166;SDS011;10741;52.272;9.580;2022-08-21T01:21:41;6.17;;;2.20;;
21166;SDS011;10741;52.272;9.580;2022-08-21T01:24:07;2.60;;;1.90;;
21166;SDS011;10741;52.272;9.580;2022-08-21T01:26:34;3.57;;;1.90;;
21166;SDS011;10741;52.272;9.580;2022-08-21T01:29:09;3.87;;;2.33;;
21166;SDS011;10741;52.272;9.580;2022-08-21T01:31:39;4.60;;;2.60;;
21166;SDS011;10741;52.272;9.580;2022-08-21T01:34:05;5.27;;;2.20;;
21166;SDS011;10741;52.272;9.580;2022-08-21T01:36:31;5.63;;;2.53;;
21166;SDS011;10741;52.272;9.580;2022-08-21T01:38:57;3.40;;;2.10;;
21166;SDS011;10741;52.272;9.580;2022-08-21T01:41:23;3.77;;;2.30;;
21166;SDS011;10741;52.272;9.580;2022-08-21T01:43:49;6.20;;;2.47;;
21166;SDS011;10741;52.272;9.580;2022-08-21T01:46:15;4.13;;;2.20;;
21166;SDS011;10741;52.272;9.580;2022-08-21T01:48:41;4.77;;;2.37;;
21166;SDS011;10741;52.272;9.580;2022-08-21T01:51:09;5.40;;;2.50;;
21166;SDS011;10741;52.272;9.580;2022-08-21T01:53:36;2.87;;;2.20;;
21166;SDS011;10741;52.272;9.580;2022-08-21T01:56:06;3.60;;;2.40;;
21166;SDS011;10741;52.272;9.580;2022-08-21T01:58:34;8.37;;;2.47;;
21166;SDS011;10741;52.272;9.580;2022-08-21T02:01:00;5.73;;;2.70;;
21166;SDS011;10741;52.272;9.580;2022-08-21T02:03:27;3.27;;;2.27;;
21166;SDS011;10741;52.272;9.580;2022-08-21T02:05:53;3.17;;;2.20;;
21166;SDS011;10741;52.272;9.580;2022-08-21T02:08:19;5.80;;;2.60;;
21166;SDS011;10741;52.272;9.580;2022-08-21T02:10:47;4.83;;;2.30;;
21166;SDS011;10741;52.272;9.580;2022-08-21T02:13:15;4.30;;;2.10;;
21166;SDS011;10741;52.272;9.580;2022-08-21T02:15:40;3.80;;;2.00;;
21166;SDS011;10741;52.272;9.580;2022-08-21T02:18:06;3.80;;;2.17;;
21166;SDS011;10741;52.272;9.580;2022-08-21T02:20:34;7.37;;;2.30;;
21166;SDS011;10741;52.272;9.580;2022-08-21T02:23:10;3.80;;;2.20;;
21166;SDS011;10741;52.272;9.580;2022-08-21T02:25:37;4.57;;;2.07;;
21166;SDS011;10741;52.272;9.580;2022-08-21T02:28:04;3.23;;;2.30;;
21166;SDS011;10741;52.272;9.580;2022-08-21T02:30:34;5.83;;;2.03;;
21166;SDS011;10741;52.272;9.580;2022-08-21T02:33:03;4.60;;;2.13;;
21166;SDS011;10741;52.272;9.580;2022-08-21T02:35:30;5.63;;;2.30;;
21166;SDS011;10741;52.272;9.580;2022-08-21T02:37:57;3.97;;;2.37;;
21166;SDS011;10741;52.272;9.580;2022-08-21T02:40:28;3.53;;;2.20;;
21166;SDS011;10741;52.272;9.580;2022-08-21T02:42:57;4.70;;;2.43;;
21166;SDS011;10741;52.272;9.580;2022-08-21T02:45:24;5.40;;;2.80;;
21166;SDS011;10741;52.272;9.580;2022-08-21T02:47:51;3.87;;;2.40;;
21166;SDS011;10741;52.272;9.580;2022-08-21T02:50:22;3.63;;;2.20;;
21166;SDS011;10741;52.272;9.580;2022-08-21T02:52:49;4.03;;;2.30;;
21166;SDS011;10741;52.272;9.580;2022-08-21T02:55:18;3.40;;;2.40;;
21166;SDS011;10741;52.272;9.580;2022-08-21T02:57:46;5.13;;;2.63;;
21166;SDS011;10741;52.272;9.580;2022-08-21T03:00:13;3.47;;;2.30;;
21166;SDS011;10741;52.272;9.580;2022-08-21T03:02:39;5.40;;;2.40;;
21166;SDS011;10741;52.272;9.580;2022-08-21T03:05:06;3.07;;;2.47;;
21166;SDS011;10741;52.272;9.580;2022-08-21T03:07:34;4.13;;;2.20;;
21166;SDS011;10741;52.272;9.580;2022-08-21T03:10:00;4.80;;;2.30;;
21166;SDS011;10741;52.272;9.580;2022-08-21T03:12:26;4.43;;;2.23;;
21166;SDS011;10741;52.272;9.580;2022-08-21T03:14:52;3.20;;;2.50;;
21166;SDS011;10741;52.272;9.580;2022-08-21T03:17:17;4.40;;;2.97;;
21166;SDS011;10741;52.272;9.580;2022-08-21T03:19:43;4.83;;;2.87;;
21166;SDS011;10741;52.272;9.580;2022-08-21T03:22:09;5.83;;;3.07;;
21166;SDS011;10741;52.272;9.580;2022-08-21T03:24:35;4.27;;;2.67;;
21166;SDS011;10741;52.272;9.580;2022-08-21T03:27:00;4.60;;;2.80;;
21166;SDS011;10741;52.272;9.580;2022-08-21T03:29:26;3.87;;;2.90;;
21166;SDS011;10741;52.272;9.580;2022-08-21T03:31:52;6.67;;;3.07;;
21166;SDS011;10741;52.272;9.580;2022-08-21T03:34:19;4.50;;;2.80;;
21166;SDS011;10741;52.272;9.580;2022-08-21T03:36:46;4.27;;;2.67;;
21166;SDS011;10741;52.272;9.580;2022-08-21T03:39:12;5.87;;;3.27;;
21166;SDS011;10741;52.272;9.580;2022-08-21T03:41:38;3.77;;;3.00;;
21166;SDS011;10741;52.272;9.580;2022-08-21T03:44:04;6.40;;;3.10;;
21166;SDS011;10741;52.272;9.580;2022-08-21T03:46:30;6.40;;;3.23;;
21166;SDS011;10741;52.272;9.580;2022-08-21T03:48:56;5.77;;;3.43;;
21166;SDS011;10741;52.272;9.580;2022-08-21T03:51:22;5.33;;;3.40;;
21166;SDS011;10741;52.272;9.580;2022-08-21T03:53:48;7.17;;;3.37;;
21166;SDS011;10741;52.272;9.580;2022-08-21T03:56:13;3.80;;;3.23;;
21166;SDS011;10741;52.272;9.580;2022-08-21T03:58:41;8.40;;;3.83;;
21166;SDS011;10741;52.272;9.580;2022-08-21T04:01:07;8.07;;;3.80;;
21166;SDS011;10741;52.272;9.580;2022-08-21T04:03:34;6.07;;;3.90;;
21166;SDS011;10741;52.272;9.580;2022-08-21T04:06:00;6.73;;;4.10;;
21166;SDS011;10741;52.272;9.580;2022-08-21T04:08:26;9.83;;;4.10;;
21166;SDS011;10741;52.272;9.580;2022-08-21T04:10:52;6.83;;;4.10;;
21166;SDS011;10741;52.272;9.580;2022-08-21T04:13:20;9.37;;;3.83;;
21166;SDS011;10741;52.272;9.580;2022-08-21T04:15:46;7.03;;;4.20;;
21166;SDS011;10741;52.272;9.580;2022-08-21T04:18:13;6.97;;;4.13;;
21166;SDS011;10741;52.272;9.580;2022-08-21T04:20:39;5.27;;;4.17;;
21166;SDS011;10741;52.272;9.580;2022-08-21T04:23:07;5.67;;;3.80;;
21166;SDS011;10741;52.272;9.580;2022-08-21T04:25:33;6.40;;;4.10;;
21166;SDS011;10741;52.272;9.580;2022-08-21T04:27:59;5.20;;;3.80;;
21166;SDS011;10741;52.272;9.580;2022-08-21T04:30:26;6.97;;;3.77;;
21166;SDS011;10741;52.272;9.580;2022-08-21T04:32:52;8.73;;;4.53;;
21166;SDS011;10741;52.272;9.580;2022-08-21T04:35:19;6.23;;;4.40;;
21166;SDS011;10741;52.272;9.580;2022-08-21T04:37:47;6.93;;;3.70;;
21166;SDS011;10741;52.272;9.580;2022-08-21T04:40:14;9.23;;;4.30;;
21166;SDS011;10741;52.272;9.580;2022-08-21T04:42:44;8.00;;;3.93;;
21166;SDS011;10741;52.272;9.580;2022-08-21T04:45:31;4.67;;;3.83;;
21166;SDS011;10741;52.272;9.580;2022-08-21T04:48:01;7.73;;;4.00;;
21166;SDS011;10741;52.272;9.580;2022-08-21T04:50:36;5.97;;;3.73;;
21166;SDS011;10741;52.272;9.580;2022-08-21T04:53:07;4.93;;;3.37;;
21166;SDS011;10741;52.272;9.580;2022-08-21T04:55:39;6.77;;;3.93;;
21166;SDS011;10741;52.272;9.580;2022-08-21T04:58:08;5.77;;;3.70;;
21166;SDS011;10741;52.272;9.580;2022-08-21T05:00:35;5.17;;;3.80;;
21166;SDS011;10741;52.272;9.580;2022-08-21T05:03:02;5.37;;;3.60;;
21166;SDS011;10741;52.272;9.580;2022-08-21T05:05:31;5.57;;;4.10;;
21166;SDS011;10741;52.272;9.580;2022-08-21T05:07:59;4.70;;;4.00;;
21166;SDS011;10741;52.272;9.580;2022-08-21T05:10:27;5.43;;;4.10;;
21166;SDS011;10741;52.272;9.580;2022-08-21T05:12:53;5.63;;;4.00;;
21166;SDS011;10741;52.272;9.580;2022-08-21T05:15:20;6.47;;;3.77;;
21166;SDS011;10741;52.272;9.580;2022-08-21T05:17:46;4.97;;;3.20;;
21166;SDS011;10741;52.272;9.580;2022-08-21T05:20:12;7.57;;;3.60;;
21166;SDS011;10741;52.272;9.580;2022-08-21T05:22:39;5.40;;;3.87;;
21166;SDS011;10741;52.272;9.580;2022-08-21T05:25:05;6.43;;;3.40;;
21166;SDS011;10741;52.272;9.580;2022-08-21T05:27:32;6.77;;;3.33;;
21166;SDS011;10741;52.272;9.580;2022-08-21T05:29:57;7.17;;;3.40;;
21166;SDS011;10741;52.272;9.580;2022-08-21T05:32:23;5.80;;;3.50;;
21166;SDS011;10741;52.272;9.580;2022-08-21T05:34:49;5.10;;;3.60;;
21166;SDS011;10741;52.272;9.580;2022-08-21T05:37:15;7.33;;;3.37;;
21166;SDS011;10741;52.272;9.580;2022-08-21T05:39:41;5.67;;;3.67;;
21166;SDS011;10741;52.272;9.580;2022-08-21T05:42:07;6.67;;;3.30;;
21166;SDS011;10741;52.272;9.580;2022-08-21T05:44:33;5.07;;;3.43;;
21166;SDS011;10741;52.272;9.580;2022-08-21T05:47:03;5.47;;;3.40;;
21166;SDS011;10741;52.272;9.580;2022-08-21T05:49:33;8.20;;;3.37;;
21166;SDS011;10741;52.272;9.580;2022-08-21T05:51:59;5.43;;;3.57;;
21166;SDS011;10741;52.272;9.580;2022-08-21T05:54:25;6.80;;;3.50;;
21166;SDS011;10741;52.272;9.580;2022-08-21T05:56:51;5.63;;;3.20;;
21166;SDS011;10741;52.272;9.580;2022-08-21T05:59:17;5.57;;;3.20;;
21166;SDS011;10741;52.272;9.580;2022-08-21T06:01:43;6.40;;;2.97;;
21166;SDS011;10741;52.272;9.580;2022-08-21T06:04:10;7.57;;;3.20;;
21166;SDS011;10741;52.272;9.580;2022-08-21T06:06:36;8.37;;;3.00;;
21166;SDS011;10741;52.272;9.580;2022-08-21T06:09:03;6.03;;;3.00;;
21166;SDS011;10741;52.272;9.580;2022-08-21T06:11:30;5.33;;;3.20;;
21166;SDS011;10741;52.272;9.580;2022-08-21T06:13:56;6.93;;;3.07;;
21166;SDS011;10741;52.272;9.580;2022-08-21T06:16:23;6.10;;;3.30;;
21166;SDS011;10741;52.272;9.580;2022-08-21T06:18:49;4.70;;;2.87;;
21166;SDS011;10741;52.272;9.580;2022-08-21T06:21:15;6.50;;;3.30;;
21166;SDS011;10741;52.272;9.580;2022-08-21T06:23:41;8.03;;;2.93;;
21166;SDS011;10741;52.272;9.580;2022-08-21T06:26:07;6.50;;;2.87;;
21166;SDS011;10741;52.272;9.580;2022-08-21T06:28:34;8.43;;;3.40;;
21166;SDS011;10741;52.272;9.580;2022-08-21T06:31:00;9.83;;;3.80;;
21166;SDS011;10741;52.272;9.580;2022-08-21T06:33:26;7.80;;;3.43;;
21166;SDS011;10741;52.272;9.580;2022-08-21T06:35:52;7.83;;;3.50;;
21166;SDS011;10741;52.272;9.580;2022-08-21T06:38:18;8.80;;;3.77;;
21166;SDS011;10741;52.272;9.580;2022-08-21T06:40:44;9.00;;;3.10;;
21166;SDS011;10741;52.272;9.580;2022-08-21T06:43:12;8.70;;;3.70;;
21166;SDS011;10741;52.272;9.580;2022-08-21T06:45:39;6.13;;;3.63;;
21166;SDS011;10741;52.272;9.580;2022-08-21T06:48:05;8.93;;;3.50;;
21166;SDS011;10741;52.272;9.580;2022-08-21T06:50:32;6.67;;;3.00;;
21166;SDS011;10741;52.272;9.580;2022-08-21T06:53:18;8.67;;;2.83;;
21166;SDS011;10741;52.272;9.580;2022-08-21T06:55:45;5.77;;;2.83;;
21166;SDS011;10741;52.272;9.580;2022-08-21T06:58:12;7.50;;;2.67;;
21166;SDS011;10741;52.272;9.580;2022-08-21T07:00:39;7.97;;;3.03;;
21166;SDS011;10741;52.272;9.580;2022-08-21T07:03:07;6.60;;;2.67;;
21166;SDS011;10741;52.272;9.580;2022-08-21T07:05:41;5.20;;;2.80;;
21166;SDS011;10741;52.272;9.580;2022-08-21T07:15:45;5.73;;;2.20;;
21166;SDS011;10741;52.272;9.580;2022-08-21T07:18:12;9.23;;;2.50;;
21166;SDS011;10741;52.272;9.580;2022-08-21T07:20:38;4.63;;;2.43;;
21166;SDS011;10741;52.272;9.580;2022-08-21T07:23:06;6.57;;;2.53;;
21166;SDS011;10741;52.272;9.580;2022-08-21T07:25:34;6.30;;;2.60;;
21166;SDS011;10741;52.272;9.580;2022-08-21T07:28:00;5.63;;;2.57;;
21166;SDS011;10741;52.272;9.580;2022-08-21T07:30:26;9.90;;;2.37;;
21166;SDS011;10741;52.272;9.580;2022-08-21T07:39:44;8.53;;;2.80;;
21166;SDS011;10741;52.272;9.580;2022-08-21T07:42:13;8.90;;;2.13;;
21166;SDS011;10741;52.272;9.580;2022-08-21T07:44:39;8.33;;;2.20;;
21166;SDS011;10741;52.272;9.580;2022-08-21T07:47:05;4.73;;;2.40;;
21166;SDS011;10741;52.272;9.580;2022-08-21T07:49:31;7.77;;;2.70;;
21166;SDS011;10741;52.272;9.580;2022-08-21T07:51:57;4.80;;;2.60;;
21166;SDS011;10741;52.272;9.580;2022-08-21T07:54:23;4.30;;;2.43;;
21166;SDS011;10741;52.272;9.580;2022-08-21T07:56:49;5.53;;;2.23;;
21166;SDS011;10741;52.272;9.580;2022-08-21T07:59:14;8.57;;;2.60;;
21166;SDS011;10741;52.272;9.580;2022-08-21T08:01:40;10.73;;;2.50;;
21166;SDS011;10741;52.272;9.580;2022-08-21T08:04:06;7.43;;;2.90;;
21166;SDS011;10741;52.272;9.580;2022-08-21T08:06:32;5.83;;;2.47;;
21166;SDS011;10741;52.272;9.580;2022-08-21T08:08:57;6.63;;;2.33;;
21166;SDS011;10741;52.272;9.580;2022-08-21T08:11:23;5.27;;;2.57;;
21166;SDS011;10741;52.272;9.580;2022-08-21T08:13:50;6.63;;;2.80;;
21166;SDS011;10741;52.272;9.580;2022-08-21T08:16:17;5.17;;;2.37;;
21166;SDS011;10741;52.272;9.580;2022-08-21T08:18:43;5.53;;;2.00;;
21166;SDS011;10741;52.272;9.580;2022-08-21T08:21:11;4.03;;;2.03;;
21166;SDS011;10741;52.272;9.580;2022-08-21T08:23:37;3.80;;;2.10;;
21166;SDS011;10741;52.272;9.580;2022-08-21T08:26:03;5.20;;;2.33;;
21166;SDS011;10741;52.272;9.580;2022-08-21T08:28:29;7.17;;;2.50;;
21166;SDS011;10741;52.272;9.580;2022-08-21T08:30:57;5.70;;;2.23;;
21166;SDS011;10741;52.272;9.580;2022-08-21T08:33:23;4.53;;;2.00;;
21166;SDS011;10741;52.272;9.580;2022-08-21T08:35:50;4.70;;;1.90;;
21166;SDS011;10741;52.272;9.580;2022-08-21T08:38:17;4.30;;;1.67;;
21166;SDS011;10741;52.272;9.580;2022-08-21T08:41:01;5.60;;;1.83;;
21166;SDS011;10741;52.272;9.580;2022-08-21T08:43:56;4.87;;;2.10;;
21166;SDS011;10741;52.272;9.580;2022-08-21T08:46:36;4.40;;;1.90;;
21166;SDS011;10741;52.272;9.580;2022-08-21T08:49:17;7.30;;;2.00;;
21166;SDS011;10741;52.272;9.580;2022-08-21T08:51:57;7.37;;;1.90;;
21166;SDS011;10741;52.272;9.580;2022-08-21T08:54:29;6.90;;;1.90;;
21166;SDS011;10741;52.272;9.580;2022-08-21T08:57:10;6.07;;;1.70;;
21166;SDS011;10741;52.272;9.580;2022-08-21T08:59:44;5.60;;;2.07;;
21166;SDS011;10741;52.272;9.580;2022-08-21T09:02:14;4.83;;;2.13;;
21166;SDS011;10741;52.272;9.580;2022-08-21T09:04:41;5.57;;;2.10;;
21166;SDS011;10741;52.272;9.580;2022-08-21T09:15:35;5.43;;;2.07;;
21166;SDS011;10741;52.272;9.580;2022-08-21T09:21:16;5.17;;;2.40;;
21166;SDS011;10741;52.272;9.580;2022-08-21T09:23:49;5.27;;;2.40;;
21166;SDS011;10741;52.272;9.580;2022-08-21T09:26:26;3.83;;;2.20;;
21166;SDS011;10741;52.272;9.580;2022-08-21T09:29:09;4.33;;;2.20;;
21166;SDS011;10741;52.272;9.580;2022-08-21T09:31:36;6.37;;;2.17;;
21166;SDS011;10741;52.272;9.580;2022-08-21T09:34:04;5.93;;;2.00;;
21166;SDS011;10741;52.272;9.580;2022-08-21T09:39:12;4.90;;;2.23;;
21166;SDS011;10741;52.272;9.580;2022-08-21T09:41:49;4.60;;;1.83;;
21166;SDS011;10741;52.272;9.580;2022-08-21T09:44:27;5.03;;;2.23;;
21166;SDS011;10741;52.272;9.580;2022-08-21T09:46:55;7.10;;;2.40;;
21166;SDS011;10741;52.272;9.580;2022-08-21T09:49:34;7.17;;;2.50;;
21166;SDS011;10741;52.272;9.580;2022-08-21T09:52:03;9.43;;;2.97;;
21166;SDS011;10741;52.272;9.580;2022-08-21T09:54:40;5.23;;;2.30;;
21166;SDS011;10741;52.272;9.580;2022-08-21T09:59:53;5.07;;;1.90;;
21166;SDS011;10741;52.272;9.580;2022-08-21T10:02:31;4.73;;;2.43;;
21166;SDS011;10741;52.272;9.580;2022-08-21T10:04:59;4.43;;;2.30;;
21166;SDS011;10741;52.272;9.580;2022-08-21T10:07:35;5.83;;;2.43;;
21166;SDS011;10741;52.272;9.580;2022-08-21T10:10:25;6.43;;;2.30;;
21166;SDS011;10741;52.272;9.580;2022-08-21T10:12:57;6.17;;;2.40;;
21166;SDS011;10741;52.272;9.580;2022-08-21T10:16:11;6.43;;;2.50;;
21166;SDS011;10741;52.272;9.580;2022-08-21T10:18:44;6.87;;;2.10;;
21166;SDS011;10741;52.272;9.580;2022-08-21T10:21:30;4.93;;;2.17;;
21166;SDS011;10741;52.272;9.580;2022-08-21T10:26:52;4.87;;;2.13;;
21166;SDS011;10741;52.272;9.580;2022-08-21T10:32:16;4.03;;;2.33;;
21166;SDS011;10741;52.272;9.580;2022-08-21T10:35:23;7.03;;;2.13;;
21166;SDS011;10741;52.272;9.580;2022-08-21T10:40:42;5.73;;;3.07;;
21166;SDS011;10741;52.272;9.580;2022-08-21T10:43:20;5.90;;;2.20;;
21166;SDS011;10741;52.272;9.580;2022-08-21T10:46:02;3.80;;;2.00;;
21166;SDS011;10741;52.272;9.580;2022-08-21T10:48:50;5.60;;;1.90;;
21166;SDS011;10741;52.272;9.580;2022-08-21T10:56:35;5.53;;;2.27;;
21166;SDS011;10741;52.272;9.580;2022-08-21T10:59:18;5.93;;;2.30;;
21166;SDS011;10741;52.272;9.580;2022-08-21T11:01:49;5.33;;;2.10;;
21166;SDS011;10741;52.272;9.580;2022-08-21T11:07:14;5.60;;;2.00;;
21166;SDS011;10741;52.272;9.580;2022-08-21T11:09:43;5.87;;;2.00;;
21166;SDS011;10741;52.272;9.580;2022-08-21T11:12:23;2.50;;;1.70;;
21166;SDS011;10741;52.272;9.580;2022-08-21T11:20:36;3.73;;;1.53;;
21166;SDS011;10741;52.272;9.580;2022-08-21T11:23:13;3.10;;;1.53;;
21166;SDS011;10741;52.272;9.580;2022-08-21T11:25:45;2.93;;;1.60;;
21166;SDS011;10741;52.272;9.580;2022-08-21T11:28:30;4.43;;;1.50;;
21166;SDS011;10741;52.272;9.580;2022-08-21T11:34:28;7.13;;;1.53;;
21166;SDS011;10741;52.272;9.580;2022-08-21T11:37:18;4.73;;;1.33;;
21166;SDS011;10741;52.272;9.580;2022-08-21T11:40:08;3.93;;;1.60;;
21166;SDS011;10741;52.272;9.580;2022-08-21T11:42:42;5.10;;;1.57;;
21166;SDS011;10741;52.272;9.580;2022-08-21T11:50:43;3.93;;;1.83;;
21166;SDS011;10741;52.272;9.580;2022-08-21T11:53:12;3.53;;;1.83;;
21166;SDS011;10741;52.272;9.580;2022-08-21T12:01:12;2.88;;;1.45;;
21166;SDS011;10741;52.272;9.580;2022-08-21T12:06:35;2.70;;;1.50;;
21166;SDS011;10741;52.272;9.580;2022-08-21T12:09:04;3.67;;;1.30;;
21166;SDS011;10741;52.272;9.580;2022-08-21T12:12:00;3.90;;;1.60;;
21166;SDS011;10741;52.272;9.580;2022-08-21T12:14:36;4.38;;;1.83;;
21166;SDS011;10741;52.272;9.580;2022-08-21T12:17:07;5.28;;;1.92;;
21166;SDS011;10741;52.272;9.580;2022-08-21T12:19:41;2.50;;;1.60;;
21166;SDS011;10741;52.272;9.580;2022-08-21T12:22:16;4.68;;;1.48;;
21166;SDS011;10741;52.272;9.580;2022-08-21T12:24:43;3.70;;;1.60;;
21166;SDS011;10741;52.272;9.580;2022-08-21T12:30:02;2.55;;;1.48;;
21166;SDS011;10741;52.272;9.580;2022-08-21T12:32:45;4.28;;;1.60;;
21166;SDS011;10741;52.272;9.580;2022-08-21T12:35:20;2.25;;;1.40;;
21166;SDS011;10741;52.272;9.580;2022-08-21T12:37:59;4.82;;;1.70;;
21166;SDS011;10741;52.272;9.580;2022-08-21T12:41:12;3.05;;;1.48;;
21166;SDS011;10741;52.272;9.580;2022-08-21T12:43:45;6.55;;;1.60;;
21166;SDS011;10741;52.272;9.580;2022-08-21T12:46:18;4.53;;;2.05;;
21166;SDS011;10741;52.272;9.580;2022-08-21T12:49:00;3.78;;;1.60;;
21166;SDS011;10741;52.272;9.580;2022-08-21T12:52:34;3.47;;;1.30;;
21166;SDS011;10741;52.272;9.580;2022-08-21T12:55:11;4.03;;;1.52;;
21166;SDS011;10741;52.272;9.580;2022-08-21T12:57:39;2.85;;;1.30;;
21166;SDS011;10741;52.272;9.580;2022-08-21T13:00:06;5.28;;;1.85;;
21166;SDS011;10741;52.272;9.580;2022-08-21T13:02:39;3.38;;;1.60;;
21166;SDS011;10741;52.272;9.580;2022-08-21T13:05:12;3.33;;;1.60;;
21166;SDS011;10741;52.272;9.580;2022-08-21T13:07:43;4.78;;;2.83;;
21166;SDS011;10741;52.272;9.580;2022-08-21T13:12:46;4.07;;;1.70;;
21166;SDS011;10741;52.272;9.580;2022-08-21T13:15:13;3.72;;;1.50;;
21166;SDS011;10741;52.272;9.580;2022-08-21T13:17:41;3.42;;;1.52;;
21166;SDS011;10741;52.272;9.580;2022-08-21T13:20:21;3.85;;;1.50;;
21166;SDS011;10741;52.272;9.580;2022-08-21T13:22:49;3.13;;;1.55;;
21166;SDS011;10741;52.272;9.580;2022-08-21T13:25:17;4.55;;;1.73;;
21166;SDS011;10741;52.272;9.580;2022-08-21T13:27:55;3.90;;;1.50;;
21166;SDS011;10741;52.272;9.580;2022-08-21T13:30:34;2.70;;;1.40;;
21166;SDS011;10741;52.272;9.580;2022-08-21T13:33:04;2.73;;;1.40;;
21166;SDS011;10741;52.272;9.580;2022-08-21T13:38:24;4.63;;;1.73;;
21166;SDS011;10741;52.272;9.580;2022-08-21T13:40:57;4.03;;;1.80;;
21166;SDS011;10741;52.272;9.580;2022-08-21T13:43:35;4.93;;;1.77;;
21166;SDS011;10741;52.272;9.580;2022-08-21T13:46:02;3.87;;;1.47;;
21166;SDS011;10741;52.272;9.580;2022-08-21T13:48:34;4.40;;;2.03;;
21166;SDS011;10741;52.272;9.580;2022-08-21T13:51:02;2.60;;;1.53;;
21166;SDS011;10741;52.272;9.580;2022-08-21T13:56:07;5.60;;;1.93;;
21166;SDS011;10741;52.272;9.580;2022-08-21T13:58:43;3.40;;;1.67;;
21166;SDS011;10741;52.272;9.580;2022-08-21T14:01:21;4.83;;;1.80;;
21166;SDS011;10741;52.272;9.580;2022-08-21T14:03:53;3.40;;;1.80;;
21166;SDS011;10741;52.272;9.580;2022-08-21T14:06:25;4.90;;;1.97;;
21166;SDS011;10741;52.272;9.580;2022-08-21T14:11:20;3.40;;;1.87;;
21166;SDS011;10741;52.272;9.580;2022-08-21T14:13:50;4.17;;;2.10;;
21166;SDS011;10741;52.272;9.580;2022-08-21T14:16:25;5.10;;;2.27;;
21166;SDS011;10741;52.272;9.580;2022-08-21T14:19:07;3.43;;;1.73;;
21166;SDS011;10741;52.272;9.580;2022-08-21T14:21:36;5.93;;;2.50;;
21166;SDS011;10741;52.272;9.580;2022-08-21T14:24:06;5.07;;;2.50;;
21166;SDS011;10741;52.272;9.580;2022-08-21T14:29:18;4.07;;;2.03;;
21166;SDS011;10741;52.272;9.580;2022-08-21T14:31:55;4.70;;;2.10;;
21166;SDS011;10741;52.272;9.580;2022-08-21T14:34:27;4.13;;;2.27;;
21166;SDS011;10741;52.272;9.580;2022-08-21T14:36:54;6.20;;;2.10;;
21166;SDS011;10741;52.272;9.580;2022-08-21T14:39:20;3.70;;;2.00;;
21166;SDS011;10741;52.272;9.580;2022-08-21T14:41:47;6.07;;;2.20;;
21166;SDS011;10741;52.272;9.580;2022-08-21T14:44:14;5.37;;;2.37;;
21166;SDS011;10741;52.272;9.580;2022-08-21T14:46:41;3.57;;;2.30;;
21166;SDS011;10741;52.272;9.580;2022-08-21T14:49:08;3.17;;;2.40;;
21166;SDS011;10741;52.272;9.580;2022-08-21T14:51:33;3.17;;;2.10;;
21166;SDS011;10741;52.272;9.580;2022-08-21T14:53:59;2.07;;;1.83;;
21166;SDS011;10741;52.272;9.580;2022-08-21T14:56:25;3.30;;;2.17;;
21166;SDS011;10741;52.272;9.580;2022-08-21T14:58:51;5.70;;;2.10;;
21166;SDS011;10741;52.272;9.580;2022-08-21T15:01:18;5.87;;;2.60;;
21166;SDS011;10741;52.272;9.580;2022-08-21T15:03:46;6.00;;;2.40;;
21166;SDS011;10741;52.272;9.580;2022-08-21T15:06:13;4.47;;;2.10;;
21166;SDS011;10741;52.272;9.580;2022-08-21T15:08:40;6.13;;;2.13;;
21166;SDS011;10741;52.272;9.580;2022-08-21T15:11:07;3.00;;;2.03;;
21166;SDS011;10741;52.272;9.580;2022-08-21T15:13:35;5.60;;;2.50;;
21166;SDS011;10741;52.272;9.580;2022-08-21T15:16:01;5.50;;;2.00;;
21166;SDS011;10741;52.272;9.580;2022-08-21T15:18:28;4.77;;;2.77;;
21166;SDS011;10741;52.272;9.580;2022-08-21T15:20:55;5.10;;;2.00;;
21166;SDS011;10741;52.272;9.580;2022-08-21T15:23:21;5.50;;;2.10;;
21166;SDS011;10741;52.272;9.580;2022-08-21T15:25:47;4.83;;;1.83;;
21166;SDS011;10741;52.272;9.580;2022-08-21T15:28:14;4.83;;;1.80;;
21166;SDS011;10741;52.272;9.580;2022-08-21T15:30:43;3.17;;;2.17;;
21166;SDS011;10741;52.272;9.580;2022-08-21T15:33:09;4.37;;;2.00;;
21166;SDS011;10741;52.272;9.580;2022-08-21T15:35:35;3.67;;;1.77;;
21166;SDS011;10741;52.272;9.580;2022-08-21T15:38:02;3.27;;;1.70;;
21166;SDS011;10741;52.272;9.580;2022-08-21T15:40:28;4.73;;;2.10;;
21166;SDS011;10741;52.272;9.580;2022-08-21T15:42:59;2.90;;;1.77;;
21166;SDS011;10741;52.272;9.580;2022-08-21T15:45:27;3.57;;;2.07;;
21166;SDS011;10741;52.272;9.580;2022-08-21T15:47:53;3.90;;;1.70;;
21166;SDS011;10741;52.272;9.580;2022-08-21T15:50:19;2.90;;;1.70;;
21166;SDS011;10741;52.272;9.580;2022-08-21T15:52:45;3.27;;;1.70;;
21166;SDS011;10741;52.272;9.580;2022-08-21T15:55:11;4.60;;;2.37;;
21166;SDS011;10741;52.272;9.580;2022-08-21T15:57:38;3.63;;;1.93;;
21166;SDS011;10741;52.272;9.580;2022-08-21T16:00:13;4.03;;;1.87;;
21166;SDS011;10741;52.272;9.580;2022-08-21T16:02:42;3.40;;;2.17;;
21166;SDS011;10741;52.272;9.580;2022-08-21T16:05:11;2.63;;;2.10;;
21166;SDS011;10741;52.272;9.580;2022-08-21T16:07:38;4.00;;;2.53;;
21166;SDS011;10741;52.272;9.580;2022-08-21T16:10:05;3.00;;;2.00;;
21166;SDS011;10741;52.272;9.580;2022-08-21T16:12:34;4.40;;;2.40;;
21166;SDS011;10741;52.272;9.580;2022-08-21T16:15:04;5.37;;;2.40;;
21166;SDS011;10741;52.272;9.580;2022-08-21T16:17:35;5.90;;;2.50;;
21166;SDS011;10741;52.272;9.580;2022-08-21T16:20:04;3.33;;;2.23;;
21166;SDS011;10741;52.272;9.580;2022-08-21T16:22:33;4.60;;;2.47;;
21166;SDS011;10741;52.272;9.580;2022-08-21T16:24:59;7.20;;;2.87;;
21166;SDS011;10741;52.272;9.580;2022-08-21T16:27:24;3.60;;;2.23;;
21166;SDS011;10741;52.272;9.580;2022-08-21T16:29:50;4.00;;;2.70;;